sensor_id;sensor_type;location;lat;lon;timestamp;P1;durP1;ratioP1;P2;durP2;ratioP2
11960;SDS011;6040;49.358;11.140;2023-07-20T00:02:21;5.70;;;3.93;;
11960;SDS011;6040;49.358;11.140;2023-07-20T00:04:48;3.93;;;3.50;;
11960;SDS011;6040;49.358;11.140;2023-07-20T00:07:16;6.30;;;4.00;;
11960;SDS011;6040;49.358;11.140;2023-07-20T00:09:43;6.23;;;4.10;;
11960;SDS011;6040;49.358;11.140;2023-07-20T00:12:10;4.73;;;3.90;;
11960;SDS011;6040;49.358;11.140;2023-07-20T00:14:37;6.97;;;4.30;;
11960;SDS011;6040;49.358;11.140;2023-07-20T00:17:03;5.23;;;4.50;;
11960;SDS011;6040;49.358;11.140;2023-07-20T00:19:31;4.53;;;3.97;;
11960;SDS011;6040;49.358;11.140;2023-07-20T00:21:58;5.83;;;4.27;;
11960;SDS011;6040;49.358;11.140;2023-07-20T00:24:26;5.13;;;4.23;;
11960;SDS011;6040;49.358;11.140;2023-07-20T00:26:53;9.43;;;4.83;;
11960;SDS011;6040;49.358;11.140;2023-07-20T00:29:20;5.93;;;4.00;;
11960;SDS011;6040;49.358;11.140;2023-07-20T00:31:46;6.97;;;4.40;;
11960;SDS011;6040;49.358;11.140;2023-07-20T00:34:14;6.47;;;4.20;;
11960;SDS011;6040;49.358;11.140;2023-07-20T00:36:40;7.53;;;4.73;;
11960;SDS011;6040;49.358;11.140;2023-07-20T00:39:07;7.07;;;4.30;;
11960;SDS011;6040;49.358;11.140;2023-07-20T00:41:36;6.93;;;4.67;;
11960;SDS011;6040;49.358;11.140;2023-07-20T00:44:02;5.53;;;4.03;;
11960;SDS011;6040;49.358;11.140;2023-07-20T00:46:30;5.53;;;4.10;;
11960;SDS011;6040;49.358;11.140;2023-07-20T00:48:58;5.47;;;4.23;;
11960;SDS011;6040;49.358;11.140;2023-07-20T00:51:25;4.93;;;3.97;;
11960;SDS011;6040;49.358;11.140;2023-07-20T00:53:52;5.00;;;4.13;;
11960;SDS011;6040;49.358;11.140;2023-07-20T00:56:19;4.33;;;3.93;;
11960;SDS011;6040;49.358;11.140;2023-07-20T00:58:48;5.33;;;4.07;;
11960;SDS011;6040;49.358;11.140;2023-07-20T01:01:15;4.23;;;3.80;;
11960;SDS011;6040;49.358;11.140;2023-07-20T01:03:42;6.17;;;3.90;;
11960;SDS011;6040;49.358;11.140;2023-07-20T01:06:10;9.17;;;4.17;;
11960;SDS011;6040;49.358;11.140;2023-07-20T01:08:53;4.97;;;4.10;;
11960;SDS011;6040;49.358;11.140;2023-07-20T01:11:28;6.20;;;4.53;;
11960;SDS011;6040;49.358;11.140;2023-07-20T01:14:03;6.27;;;4.10;;
11960;SDS011;6040;49.358;11.140;2023-07-20T01:16:32;6.43;;;4.20;;
11960;SDS011;6040;49.358;11.140;2023-07-20T01:18:59;6.60;;;4.43;;
11960;SDS011;6040;49.358;11.140;2023-07-20T01:21:28;4.40;;;3.90;;
11960;SDS011;6040;49.358;11.140;2023-07-20T01:30:11;4.63;;;3.97;;
11960;SDS011;6040;49.358;11.140;2023-07-20T01:32:48;4.07;;;3.67;;
11960;SDS011;6040;49.358;11.140;2023-07-20T01:35:16;4.23;;;3.30;;
11960;SDS011;6040;49.358;11.140;2023-07-20T01:37:44;5.07;;;3.70;;
11960;SDS011;6040;49.358;11.140;2023-07-20T01:40:13;5.23;;;4.27;;
11960;SDS011;6040;49.358;11.140;2023-07-20T01:42:45;5.07;;;4.30;;
11960;SDS011;6040;49.358;11.140;2023-07-20T01:45:12;5.30;;;4.53;;
11960;SDS011;6040;49.358;11.140;2023-07-20T01:47:39;4.77;;;4.20;;
11960;SDS011;6040;49.358;11.140;2023-07-20T01:50:08;6.00;;;4.00;;
11960;SDS011;6040;49.358;11.140;2023-07-20T01:52:35;5.37;;;4.23;;
11960;SDS011;6040;49.358;11.140;2023-07-20T01:55:02;4.77;;;3.80;;
11960;SDS011;6040;49.358;11.140;2023-07-20T01:57:29;5.70;;;3.90;;
11960;SDS011;6040;49.358;11.140;2023-07-20T01:59:56;3.83;;;3.40;;
11960;SDS011;6040;49.358;11.140;2023-07-20T02:02:23;5.70;;;4.27;;
11960;SDS011;6040;49.358;11.140;2023-07-20T02:04:52;5.80;;;4.10;;
11960;SDS011;6040;49.358;11.140;2023-07-20T02:07:20;4.53;;;3.50;;
11960;SDS011;6040;49.358;11.140;2023-07-20T02:09:47;5.30;;;4.50;;
11960;SDS011;6040;49.358;11.140;2023-07-20T02:12:14;4.90;;;3.90;;
11960;SDS011;6040;49.358;11.140;2023-07-20T02:14:41;6.70;;;4.10;;
11960;SDS011;6040;49.358;11.140;2023-07-20T02:17:08;5.87;;;4.27;;
11960;SDS011;6040;49.358;11.140;2023-07-20T02:19:36;6.67;;;4.20;;
11960;SDS011;6040;49.358;11.140;2023-07-20T02:22:04;5.60;;;4.00;;
11960;SDS011;6040;49.358;11.140;2023-07-20T02:24:33;6.33;;;4.10;;
11960;SDS011;6040;49.358;11.140;2023-07-20T02:27:00;4.70;;;3.60;;
11960;SDS011;6040;49.358;11.140;2023-07-20T02:29:26;4.70;;;4.20;;
11960;SDS011;6040;49.358;11.140;2023-07-20T02:31:53;5.97;;;4.33;;
11960;SDS011;6040;49.358;11.140;2023-07-20T02:34:20;5.30;;;3.73;;
11960;SDS011;6040;49.358;11.140;2023-07-20T02:36:47;6.17;;;5.00;;
11960;SDS011;6040;49.358;11.140;2023-07-20T02:39:14;6.80;;;4.60;;
11960;SDS011;6040;49.358;11.140;2023-07-20T02:41:42;5.77;;;4.10;;
11960;SDS011;6040;49.358;11.140;2023-07-20T02:44:09;5.27;;;4.20;;
11960;SDS011;6040;49.358;11.140;2023-07-20T02:46:36;5.27;;;3.70;;
11960;SDS011;6040;49.358;11.140;2023-07-20T02:49:03;4.20;;;3.80;;
11960;SDS011;6040;49.358;11.140;2023-07-20T02:51:30;5.33;;;3.93;;
11960;SDS011;6040;49.358;11.140;2023-07-20T02:53:57;6.20;;;4.30;;
11960;SDS011;6040;49.358;11.140;2023-07-20T02:56:25;5.07;;;3.80;;
11960;SDS011;6040;49.358;11.140;2023-07-20T02:58:53;4.93;;;4.27;;
11960;SDS011;6040;49.358;11.140;2023-07-20T03:01:20;5.90;;;3.93;;
11960;SDS011;6040;49.358;11.140;2023-07-20T03:03:48;5.17;;;4.07;;
11960;SDS011;6040;49.358;11.140;2023-07-20T03:06:15;6.70;;;4.10;;
11960;SDS011;6040;49.358;11.140;2023-07-20T03:08:42;4.13;;;3.70;;
11960;SDS011;6040;49.358;11.140;2023-07-20T03:11:12;6.77;;;4.03;;
11960;SDS011;6040;49.358;11.140;2023-07-20T03:13:40;5.93;;;4.40;;
11960;SDS011;6040;49.358;11.140;2023-07-20T03:16:08;5.10;;;3.93;;
11960;SDS011;6040;49.358;11.140;2023-07-20T03:18:36;4.87;;;4.30;;
11960;SDS011;6040;49.358;11.140;2023-07-20T03:21:03;8.07;;;4.80;;
11960;SDS011;6040;49.358;11.140;2023-07-20T03:23:30;8.30;;;4.33;;
11960;SDS011;6040;49.358;11.140;2023-07-20T03:25:57;4.70;;;3.93;;
11960;SDS011;6040;49.358;11.140;2023-07-20T03:28:24;4.10;;;3.70;;
11960;SDS011;6040;49.358;11.140;2023-07-20T03:30:52;6.63;;;4.37;;
11960;SDS011;6040;49.358;11.140;2023-07-20T03:33:21;7.33;;;4.80;;
11960;SDS011;6040;49.358;11.140;2023-07-20T03:35:48;6.07;;;4.47;;
11960;SDS011;6040;49.358;11.140;2023-07-20T03:38:15;5.47;;;4.20;;
11960;SDS011;6040;49.358;11.140;2023-07-20T03:40:48;6.17;;;4.53;;
11960;SDS011;6040;49.358;11.140;2023-07-20T03:43:16;6.17;;;4.10;;
11960;SDS011;6040;49.358;11.140;2023-07-20T03:45:43;4.80;;;4.00;;
11960;SDS011;6040;49.358;11.140;2023-07-20T03:48:10;7.53;;;3.97;;
11960;SDS011;6040;49.358;11.140;2023-07-20T03:50:38;6.37;;;4.23;;
11960;SDS011;6040;49.358;11.140;2023-07-20T03:53:05;5.03;;;3.63;;
11960;SDS011;6040;49.358;11.140;2023-07-20T03:55:32;5.40;;;4.30;;
11960;SDS011;6040;49.358;11.140;2023-07-20T03:57:59;4.83;;;3.80;;
11960;SDS011;6040;49.358;11.140;2023-07-20T04:00:26;5.70;;;3.90;;
11960;SDS011;6040;49.358;11.140;2023-07-20T04:02:53;5.33;;;3.87;;
11960;SDS011;6040;49.358;11.140;2023-07-20T04:05:20;6.40;;;4.17;;
11960;SDS011;6040;49.358;11.140;2023-07-20T04:07:48;5.57;;;3.90;;
11960;SDS011;6040;49.358;11.140;2023-07-20T04:10:16;5.93;;;3.80;;
11960;SDS011;6040;49.358;11.140;2023-07-20T04:12:43;5.40;;;4.07;;
11960;SDS011;6040;49.358;11.140;2023-07-20T04:15:12;5.43;;;3.97;;
11960;SDS011;6040;49.358;11.140;2023-07-20T04:17:39;5.20;;;4.17;;
11960;SDS011;6040;49.358;11.140;2023-07-20T04:20:06;6.23;;;3.80;;
11960;SDS011;6040;49.358;11.140;2023-07-20T04:22:34;8.20;;;4.27;;
11960;SDS011;6040;49.358;11.140;2023-07-20T04:25:03;8.27;;;4.50;;
11960;SDS011;6040;49.358;11.140;2023-07-20T04:27:30;7.87;;;4.40;;
11960;SDS011;6040;49.358;11.140;2023-07-20T04:29:57;5.57;;;4.53;;
11960;SDS011;6040;49.358;11.140;2023-07-20T04:32:25;9.37;;;4.67;;
11960;SDS011;6040;49.358;11.140;2023-07-20T04:34:52;5.10;;;3.70;;
11960;SDS011;6040;49.358;11.140;2023-07-20T04:37:18;6.83;;;4.20;;
11960;SDS011;6040;49.358;11.140;2023-07-20T04:39:45;7.40;;;4.13;;
11960;SDS011;6040;49.358;11.140;2023-07-20T04:42:14;5.80;;;4.27;;
11960;SDS011;6040;49.358;11.140;2023-07-20T04:44:41;8.87;;;4.10;;
11960;SDS011;6040;49.358;11.140;2023-07-20T04:47:08;6.17;;;4.37;;
11960;SDS011;6040;49.358;11.140;2023-07-20T04:49:35;10.13;;;4.70;;
11960;SDS011;6040;49.358;11.140;2023-07-20T04:52:01;7.23;;;4.20;;
11960;SDS011;6040;49.358;11.140;2023-07-20T04:54:28;8.97;;;4.20;;
11960;SDS011;6040;49.358;11.140;2023-07-20T04:56:55;6.63;;;4.43;;
11960;SDS011;6040;49.358;11.140;2023-07-20T04:59:23;9.30;;;4.47;;
11960;SDS011;6040;49.358;11.140;2023-07-20T05:01:50;8.53;;;4.30;;
11960;SDS011;6040;49.358;11.140;2023-07-20T05:04:17;6.10;;;4.17;;
11960;SDS011;6040;49.358;11.140;2023-07-20T05:06:44;7.57;;;4.10;;
11960;SDS011;6040;49.358;11.140;2023-07-20T05:09:11;6.57;;;4.20;;
11960;SDS011;6040;49.358;11.140;2023-07-20T05:11:38;9.27;;;4.33;;
11960;SDS011;6040;49.358;11.140;2023-07-20T05:14:05;9.43;;;4.17;;
11960;SDS011;6040;49.358;11.140;2023-07-20T05:16:34;6.23;;;4.03;;
11960;SDS011;6040;49.358;11.140;2023-07-20T05:19:01;6.27;;;4.23;;
11960;SDS011;6040;49.358;11.140;2023-07-20T05:21:27;8.70;;;3.97;;
11960;SDS011;6040;49.358;11.140;2023-07-20T05:23:54;10.17;;;3.90;;
11960;SDS011;6040;49.358;11.140;2023-07-20T05:26:21;6.67;;;4.10;;
11960;SDS011;6040;49.358;11.140;2023-07-20T05:28:48;5.77;;;4.10;;
11960;SDS011;6040;49.358;11.140;2023-07-20T05:31:15;6.20;;;4.10;;
11960;SDS011;6040;49.358;11.140;2023-07-20T05:33:43;7.37;;;3.80;;
11960;SDS011;6040;49.358;11.140;2023-07-20T05:36:09;6.60;;;3.50;;
11960;SDS011;6040;49.358;11.140;2023-07-20T05:38:36;5.43;;;3.80;;
11960;SDS011;6040;49.358;11.140;2023-07-20T05:41:44;5.37;;;4.33;;
11960;SDS011;6040;49.358;11.140;2023-07-20T05:44:10;6.03;;;3.70;;
11960;SDS011;6040;49.358;11.140;2023-07-20T05:46:37;6.77;;;3.60;;
11960;SDS011;6040;49.358;11.140;2023-07-20T05:49:04;7.67;;;3.60;;
11960;SDS011;6040;49.358;11.140;2023-07-20T05:51:31;7.00;;;3.90;;
11960;SDS011;6040;49.358;11.140;2023-07-20T05:53:58;7.07;;;3.60;;
11960;SDS011;6040;49.358;11.140;2023-07-20T05:56:24;5.57;;;3.10;;
11960;SDS011;6040;49.358;11.140;2023-07-20T05:58:52;4.00;;;3.30;;
11960;SDS011;6040;49.358;11.140;2023-07-20T06:01:19;6.07;;;3.37;;
11960;SDS011;6040;49.358;11.140;2023-07-20T06:03:46;5.73;;;3.20;;
11960;SDS011;6040;49.358;11.140;2023-07-20T06:06:13;6.73;;;3.30;;
11960;SDS011;6040;49.358;11.140;2023-07-20T06:08:40;6.63;;;3.20;;
11960;SDS011;6040;49.358;11.140;2023-07-20T06:11:06;8.33;;;3.43;;
11960;SDS011;6040;49.358;11.140;2023-07-20T06:13:33;3.97;;;3.00;;
11960;SDS011;6040;49.358;11.140;2023-07-20T06:16:01;4.20;;;3.00;;
11960;SDS011;6040;49.358;11.140;2023-07-20T06:18:29;3.27;;;2.97;;
11960;SDS011;6040;49.358;11.140;2023-07-20T06:20:56;5.00;;;3.17;;
11960;SDS011;6040;49.358;11.140;2023-07-20T06:23:23;5.30;;;3.50;;
11960;SDS011;6040;49.358;11.140;2023-07-20T06:25:50;3.87;;;2.87;;
11960;SDS011;6040;49.358;11.140;2023-07-20T06:28:16;4.00;;;2.77;;
11960;SDS011;6040;49.358;11.140;2023-07-20T06:30:44;7.00;;;3.17;;
11960;SDS011;6040;49.358;11.140;2023-07-20T06:33:12;6.20;;;3.00;;
11960;SDS011;6040;49.358;11.140;2023-07-20T06:35:41;4.60;;;2.70;;
11960;SDS011;6040;49.358;11.140;2023-07-20T06:38:08;5.70;;;3.17;;
11960;SDS011;6040;49.358;11.140;2023-07-20T06:40:34;5.30;;;3.13;;
11960;SDS011;6040;49.358;11.140;2023-07-20T06:43:01;5.20;;;2.70;;
11960;SDS011;6040;49.358;11.140;2023-07-20T06:45:28;5.80;;;3.13;;
11960;SDS011;6040;49.358;11.140;2023-07-20T06:47:56;5.13;;;2.97;;
11960;SDS011;6040;49.358;11.140;2023-07-20T06:50:24;5.87;;;2.83;;
11960;SDS011;6040;49.358;11.140;2023-07-20T06:52:50;3.33;;;2.60;;
11960;SDS011;6040;49.358;11.140;2023-07-20T06:55:17;3.33;;;2.67;;
11960;SDS011;6040;49.358;11.140;2023-07-20T06:57:44;9.43;;;3.00;;
11960;SDS011;6040;49.358;11.140;2023-07-20T07:00:11;5.83;;;2.80;;
11960;SDS011;6040;49.358;11.140;2023-07-20T07:02:39;4.57;;;2.70;;
11960;SDS011;6040;49.358;11.140;2023-07-20T07:05:06;5.50;;;2.77;;
11960;SDS011;6040;49.358;11.140;2023-07-20T07:07:34;6.23;;;3.03;;
11960;SDS011;6040;49.358;11.140;2023-07-20T07:10:01;6.63;;;3.20;;
11960;SDS011;6040;49.358;11.140;2023-07-20T07:12:30;4.83;;;2.90;;
11960;SDS011;6040;49.358;11.140;2023-07-20T07:14:57;5.83;;;3.00;;
11960;SDS011;6040;49.358;11.140;2023-07-20T07:17:24;8.10;;;2.97;;
11960;SDS011;6040;49.358;11.140;2023-07-20T07:19:51;6.83;;;2.67;;
11960;SDS011;6040;49.358;11.140;2023-07-20T07:22:19;4.43;;;2.90;;
11960;SDS011;6040;49.358;11.140;2023-07-20T07:24:47;3.27;;;2.50;;
11960;SDS011;6040;49.358;11.140;2023-07-20T07:27:15;4.03;;;2.30;;
11960;SDS011;6040;49.358;11.140;2023-07-20T07:29:42;5.67;;;2.23;;
11960;SDS011;6040;49.358;11.140;2023-07-20T07:32:09;3.53;;;2.50;;
11960;SDS011;6040;49.358;11.140;2023-07-20T07:34:37;3.40;;;2.30;;
11960;SDS011;6040;49.358;11.140;2023-07-20T07:37:04;6.30;;;2.53;;
11960;SDS011;6040;49.358;11.140;2023-07-20T07:39:31;7.73;;;2.60;;
11960;SDS011;6040;49.358;11.140;2023-07-20T07:41:59;4.20;;;2.43;;
11960;SDS011;6040;49.358;11.140;2023-07-20T07:44:26;3.20;;;2.23;;
11960;SDS011;6040;49.358;11.140;2023-07-20T07:46:53;3.30;;;2.40;;
11960;SDS011;6040;49.358;11.140;2023-07-20T07:49:20;4.13;;;2.30;;
11960;SDS011;6040;49.358;11.140;2023-07-20T07:51:47;5.50;;;2.70;;
11960;SDS011;6040;49.358;11.140;2023-07-20T07:54:13;4.50;;;2.28;;
11960;SDS011;6040;49.358;11.140;2023-07-20T07:56:40;3.45;;;2.05;;
11960;SDS011;6040;49.358;11.140;2023-07-20T07:59:10;4.22;;;2.40;;
11960;SDS011;6040;49.358;11.140;2023-07-20T08:01:37;3.92;;;2.20;;
11960;SDS011;6040;49.358;11.140;2023-07-20T08:04:04;3.90;;;2.40;;
11960;SDS011;6040;49.358;11.140;2023-07-20T08:06:30;2.75;;;2.00;;
11960;SDS011;6040;49.358;11.140;2023-07-20T08:08:57;3.10;;;2.22;;
11960;SDS011;6040;49.358;11.140;2023-07-20T08:11:24;7.30;;;2.63;;
11960;SDS011;6040;49.358;11.140;2023-07-20T08:13:51;5.03;;;2.13;;
11960;SDS011;6040;49.358;11.140;2023-07-20T08:16:19;4.35;;;2.40;;
11960;SDS011;6040;49.358;11.140;2023-07-20T08:18:46;4.22;;;2.25;;
11960;SDS011;6040;49.358;11.140;2023-07-20T08:21:14;6.50;;;2.28;;
11960;SDS011;6040;49.358;11.140;2023-07-20T08:23:41;4.47;;;2.28;;
11960;SDS011;6040;49.358;11.140;2023-07-20T08:26:08;5.43;;;2.60;;
11960;SDS011;6040;49.358;11.140;2023-07-20T08:28:35;2.97;;;2.20;;
11960;SDS011;6040;49.358;11.140;2023-07-20T08:31:02;4.72;;;2.17;;
11960;SDS011;6040;49.358;11.140;2023-07-20T08:33:32;5.78;;;2.40;;
11960;SDS011;6040;49.358;11.140;2023-07-20T08:36:00;2.92;;;2.20;;
11960;SDS011;6040;49.358;11.140;2023-07-20T08:38:28;2.85;;;2.17;;
11960;SDS011;6040;49.358;11.140;2023-07-20T08:40:55;7.78;;;2.42;;
11960;SDS011;6040;49.358;11.140;2023-07-20T08:43:25;6.10;;;2.40;;
11960;SDS011;6040;49.358;11.140;2023-07-20T08:45:53;6.60;;;2.17;;
11960;SDS011;6040;49.358;11.140;2023-07-20T08:48:21;6.72;;;2.10;;
11960;SDS011;6040;49.358;11.140;2023-07-20T08:50:50;5.85;;;2.45;;
11960;SDS011;6040;49.358;11.140;2023-07-20T08:53:18;3.50;;;2.45;;
11960;SDS011;6040;49.358;11.140;2023-07-20T08:55:46;2.85;;;2.20;;
11960;SDS011;6040;49.358;11.140;2023-07-20T08:58:16;3.95;;;2.03;;
11960;SDS011;6040;49.358;11.140;2023-07-20T09:00:44;3.80;;;1.98;;
11960;SDS011;6040;49.358;11.140;2023-07-20T09:03:11;2.25;;;1.90;;
11960;SDS011;6040;49.358;11.140;2023-07-20T09:05:38;2.45;;;2.08;;
11960;SDS011;6040;49.358;11.140;2023-07-20T09:08:07;3.08;;;1.75;;
11960;SDS011;6040;49.358;11.140;2023-07-20T09:10:34;3.17;;;1.70;;
11960;SDS011;6040;49.358;11.140;2023-07-20T09:13:01;3.95;;;2.15;;
11960;SDS011;6040;49.358;11.140;2023-07-20T09:15:28;2.22;;;1.83;;
11960;SDS011;6040;49.358;11.140;2023-07-20T09:17:55;1.85;;;1.65;;
11960;SDS011;6040;49.358;11.140;2023-07-20T09:20:22;2.20;;;1.60;;
11960;SDS011;6040;49.358;11.140;2023-07-20T09:22:50;4.73;;;1.87;;
11960;SDS011;6040;49.358;11.140;2023-07-20T09:25:19;2.20;;;2.00;;
11960;SDS011;6040;49.358;11.140;2023-07-20T09:27:46;2.80;;;1.75;;
11960;SDS011;6040;49.358;11.140;2023-07-20T09:30:14;2.92;;;1.85;;
11960;SDS011;6040;49.358;11.140;2023-07-20T09:32:43;2.67;;;1.60;;
11960;SDS011;6040;49.358;11.140;2023-07-20T09:35:13;2.30;;;1.67;;
11960;SDS011;6040;49.358;11.140;2023-07-20T09:37:45;1.73;;;1.63;;
11960;SDS011;6040;49.358;11.140;2023-07-20T09:40:14;2.97;;;1.70;;
11960;SDS011;6040;49.358;11.140;2023-07-20T09:42:43;2.58;;;1.80;;
11960;SDS011;6040;49.358;11.140;2023-07-20T09:45:10;1.80;;;1.63;;
11960;SDS011;6040;49.358;11.140;2023-07-20T09:47:37;3.35;;;1.70;;
11960;SDS011;6040;49.358;11.140;2023-07-20T09:50:06;3.28;;;1.73;;
11960;SDS011;6040;49.358;11.140;2023-07-20T09:52:37;2.20;;;1.60;;
11960;SDS011;6040;49.358;11.140;2023-07-20T09:55:06;3.30;;;1.80;;
11960;SDS011;6040;49.358;11.140;2023-07-20T09:57:34;3.63;;;1.70;;
11960;SDS011;6040;49.358;11.140;2023-07-20T10:00:03;2.92;;;1.75;;
11960;SDS011;6040;49.358;11.140;2023-07-20T10:02:39;2.53;;;1.80;;
11960;SDS011;6040;49.358;11.140;2023-07-20T10:05:08;2.85;;;1.83;;
11960;SDS011;6040;49.358;11.140;2023-07-20T10:07:40;3.53;;;1.73;;
11960;SDS011;6040;49.358;11.140;2023-07-20T10:10:14;8.63;;;1.90;;
11960;SDS011;6040;49.358;11.140;2023-07-20T10:12:42;2.55;;;1.70;;
11960;SDS011;6040;49.358;11.140;2023-07-20T10:15:13;2.17;;;1.85;;
11960;SDS011;6040;49.358;11.140;2023-07-20T10:17:47;3.50;;;1.70;;
11960;SDS011;6040;49.358;11.140;2023-07-20T10:20:19;4.57;;;1.70;;
11960;SDS011;6040;49.358;11.140;2023-07-20T10:22:47;3.97;;;1.80;;
11960;SDS011;6040;49.358;11.140;2023-07-20T10:25:19;2.88;;;1.60;;
11960;SDS011;6040;49.358;11.140;2023-07-20T10:27:48;4.15;;;1.63;;
11960;SDS011;6040;49.358;11.140;2023-07-20T10:30:16;2.03;;;1.70;;
11960;SDS011;6040;49.358;11.140;2023-07-20T10:32:44;2.45;;;1.50;;
11960;SDS011;6040;49.358;11.140;2023-07-20T10:35:12;3.33;;;1.50;;
11960;SDS011;6040;49.358;11.140;2023-07-20T10:37:46;2.30;;;1.60;;
11960;SDS011;6040;49.358;11.140;2023-07-20T10:40:24;1.80;;;1.52;;
11960;SDS011;6040;49.358;11.140;2023-07-20T10:42:55;1.85;;;1.52;;
11960;SDS011;6040;49.358;11.140;2023-07-20T10:45:33;2.33;;;1.60;;
11960;SDS011;6040;49.358;11.140;2023-07-20T10:48:14;1.45;;;1.30;;
11960;SDS011;6040;49.358;11.140;2023-07-20T10:50:42;5.10;;;1.80;;
11960;SDS011;6040;49.358;11.140;2023-07-20T10:53:10;1.65;;;1.45;;
11960;SDS011;6040;49.358;11.140;2023-07-20T10:55:38;3.05;;;1.60;;
11960;SDS011;6040;49.358;11.140;2023-07-20T10:58:08;1.75;;;1.50;;
11960;SDS011;6040;49.358;11.140;2023-07-20T11:00:38;2.20;;;1.60;;
11960;SDS011;6040;49.358;11.140;2023-07-20T11:03:29;3.03;;;1.50;;
11960;SDS011;6040;49.358;11.140;2023-07-20T11:05:57;1.63;;;1.40;;
11960;SDS011;6040;49.358;11.140;2023-07-20T11:08:40;8.40;;;1.73;;
11960;SDS011;6040;49.358;11.140;2023-07-20T11:11:21;2.55;;;1.60;;
11960;SDS011;6040;49.358;11.140;2023-07-20T11:13:55;3.55;;;1.65;;
11960;SDS011;6040;49.358;11.140;2023-07-20T11:16:36;2.85;;;1.30;;
11960;SDS011;6040;49.358;11.140;2023-07-20T11:19:05;2.25;;;1.40;;
11960;SDS011;6040;49.358;11.140;2023-07-20T11:21:40;1.75;;;1.30;;
11960;SDS011;6040;49.358;11.140;2023-07-20T11:24:08;4.40;;;1.50;;
11960;SDS011;6040;49.358;11.140;2023-07-20T11:26:46;1.75;;;1.45;;
11960;SDS011;6040;49.358;11.140;2023-07-20T11:29:15;1.95;;;1.05;;
11960;SDS011;6040;49.358;11.140;2023-07-20T11:31:44;1.80;;;1.30;;
11960;SDS011;6040;49.358;11.140;2023-07-20T11:34:13;4.40;;;1.58;;
11960;SDS011;6040;49.358;11.140;2023-07-20T11:36:41;1.85;;;1.50;;
11960;SDS011;6040;49.358;11.140;2023-07-20T11:39:09;1.70;;;1.50;;
11960;SDS011;6040;49.358;11.140;2023-07-20T11:41:37;2.83;;;1.50;;
11960;SDS011;6040;49.358;11.140;2023-07-20T11:44:05;1.50;;;1.40;;
11960;SDS011;6040;49.358;11.140;2023-07-20T11:46:32;1.42;;;1.33;;
11960;SDS011;6040;49.358;11.140;2023-07-20T11:49:01;1.80;;;1.40;;
11960;SDS011;6040;49.358;11.140;2023-07-20T11:51:28;1.27;;;1.15;;
11960;SDS011;6040;49.358;11.140;2023-07-20T11:53:56;1.60;;;1.30;;
11960;SDS011;6040;49.358;11.140;2023-07-20T11:56:23;3.65;;;1.50;;
11960;SDS011;6040;49.358;11.140;2023-07-20T11:58:54;3.28;;;1.38;;
11960;SDS011;6040;49.358;11.140;2023-07-20T12:01:23;3.33;;;1.50;;
11960;SDS011;6040;49.358;11.140;2023-07-20T12:03:49;1.50;;;1.20;;
11960;SDS011;6040;49.358;11.140;2023-07-20T12:06:18;1.38;;;1.27;;
11960;SDS011;6040;49.358;11.140;2023-07-20T12:08:48;1.80;;;1.20;;
11960;SDS011;6040;49.358;11.140;2023-07-20T12:11:29;1.50;;;1.30;;
11960;SDS011;6040;49.358;11.140;2023-07-20T12:13:57;1.27;;;1.17;;
11960;SDS011;6040;49.358;11.140;2023-07-20T12:16:26;3.53;;;1.30;;
11960;SDS011;6040;49.358;11.140;2023-07-20T12:18:59;1.30;;;1.20;;
11960;SDS011;6040;49.358;11.140;2023-07-20T12:21:28;2.20;;;1.10;;
11960;SDS011;6040;49.358;11.140;2023-07-20T12:23:55;1.30;;;1.20;;
11960;SDS011;6040;49.358;11.140;2023-07-20T12:26:23;2.85;;;1.70;;
11960;SDS011;6040;49.358;11.140;2023-07-20T12:28:51;1.40;;;1.30;;
11960;SDS011;6040;49.358;11.140;2023-07-20T12:31:18;2.38;;;1.20;;
11960;SDS011;6040;49.358;11.140;2023-07-20T12:33:46;1.30;;;1.20;;
11960;SDS011;6040;49.358;11.140;2023-07-20T12:36:13;2.13;;;1.60;;
11960;SDS011;6040;49.358;11.140;2023-07-20T12:38:41;1.85;;;1.35;;
11960;SDS011;6040;49.358;11.140;2023-07-20T12:41:09;1.40;;;1.20;;
11960;SDS011;6040;49.358;11.140;2023-07-20T12:43:38;1.40;;;1.30;;
11960;SDS011;6040;49.358;11.140;2023-07-20T12:46:06;2.22;;;1.30;;
11960;SDS011;6040;49.358;11.140;2023-07-20T12:48:33;1.65;;;1.30;;
11960;SDS011;6040;49.358;11.140;2023-07-20T12:51:01;4.43;;;1.63;;
11960;SDS011;6040;49.358;11.140;2023-07-20T12:53:29;1.20;;;1.10;;
11960;SDS011;6040;49.358;11.140;2023-07-20T12:55:58;2.80;;;1.20;;
11960;SDS011;6040;49.358;11.140;2023-07-20T12:58:24;1.48;;;1.20;;
11960;SDS011;6040;49.358;11.140;2023-07-20T13:00:52;2.55;;;1.30;;
11960;SDS011;6040;49.358;11.140;2023-07-20T13:03:19;1.42;;;1.33;;
11960;SDS011;6040;49.358;11.140;2023-07-20T13:05:46;2.10;;;1.20;;
11960;SDS011;6040;49.358;11.140;2023-07-20T13:08:13;2.85;;;1.40;;
11960;SDS011;6040;49.358;11.140;2023-07-20T13:10:40;2.47;;;1.40;;
11960;SDS011;6040;49.358;11.140;2023-07-20T13:13:08;1.40;;;1.30;;
11960;SDS011;6040;49.358;11.140;2023-07-20T13:15:40;2.33;;;1.30;;
11960;SDS011;6040;49.358;11.140;2023-07-20T13:18:08;1.40;;;1.30;;
11960;SDS011;6040;49.358;11.140;2023-07-20T13:20:35;4.57;;;1.30;;
11960;SDS011;6040;49.358;11.140;2023-07-20T13:23:01;1.88;;;1.42;;
11960;SDS011;6040;49.358;11.140;2023-07-20T13:25:28;2.33;;;1.55;;
11960;SDS011;6040;49.358;11.140;2023-07-20T13:27:55;1.83;;;1.42;;
11960;SDS011;6040;49.358;11.140;2023-07-20T13:30:24;1.42;;;1.27;;
11960;SDS011;6040;49.358;11.140;2023-07-20T13:32:50;1.55;;;1.20;;
11960;SDS011;6040;49.358;11.140;2023-07-20T13:35:17;4.32;;;1.52;;
11960;SDS011;6040;49.358;11.140;2023-07-20T13:37:44;1.77;;;1.35;;
11960;SDS011;6040;49.358;11.140;2023-07-20T13:40:11;1.40;;;1.30;;
11960;SDS011;6040;49.358;11.140;2023-07-20T13:42:40;1.95;;;1.45;;
11960;SDS011;6040;49.358;11.140;2023-07-20T13:45:07;2.53;;;1.50;;
11960;SDS011;6040;49.358;11.140;2023-07-20T13:47:36;1.52;;;1.40;;
11960;SDS011;6040;49.358;11.140;2023-07-20T13:50:03;6.30;;;1.70;;
11960;SDS011;6040;49.358;11.140;2023-07-20T13:52:30;2.08;;;1.40;;
11960;SDS011;6040;49.358;11.140;2023-07-20T13:54:57;2.03;;;1.45;;
11960;SDS011;6040;49.358;11.140;2023-07-20T13:57:24;2.78;;;1.63;;
11960;SDS011;6040;49.358;11.140;2023-07-20T13:59:50;6.53;;;1.75;;
11960;SDS011;6040;49.358;11.140;2023-07-20T14:02:17;3.70;;;1.50;;
11960;SDS011;6040;49.358;11.140;2023-07-20T14:04:45;2.45;;;1.55;;
11960;SDS011;6040;49.358;11.140;2023-07-20T14:07:13;3.50;;;1.58;;
11960;SDS011;6040;49.358;11.140;2023-07-20T14:09:40;2.63;;;1.67;;
11960;SDS011;6040;49.358;11.140;2023-07-20T14:12:07;1.55;;;1.30;;
11960;SDS011;6040;49.358;11.140;2023-07-20T14:14:37;1.88;;;1.40;;
11960;SDS011;6040;49.358;11.140;2023-07-20T14:17:04;1.65;;;1.50;;
11960;SDS011;6040;49.358;11.140;2023-07-20T14:19:31;1.85;;;1.58;;
11960;SDS011;6040;49.358;11.140;2023-07-20T14:21:59;1.73;;;1.60;;
11960;SDS011;6040;49.358;11.140;2023-07-20T14:24:26;3.75;;;1.40;;
11960;SDS011;6040;49.358;11.140;2023-07-20T14:26:53;1.50;;;1.40;;
11960;SDS011;6040;49.358;11.140;2023-07-20T14:29:20;2.55;;;1.30;;
11960;SDS011;6040;49.358;11.140;2023-07-20T14:31:47;1.48;;;1.38;;
11960;SDS011;6040;49.358;11.140;2023-07-20T14:34:15;2.28;;;1.33;;
11960;SDS011;6040;49.358;11.140;2023-07-20T14:36:43;2.00;;;1.48;;
11960;SDS011;6040;49.358;11.140;2023-07-20T14:39:12;2.85;;;1.45;;
11960;SDS011;6040;49.358;11.140;2023-07-20T14:41:38;1.95;;;1.45;;
11960;SDS011;6040;49.358;11.140;2023-07-20T14:44:05;1.92;;;1.48;;
11960;SDS011;6040;49.358;11.140;2023-07-20T14:46:32;4.72;;;1.33;;
11960;SDS011;6040;49.358;11.140;2023-07-20T14:48:59;1.98;;;1.35;;
11960;SDS011;6040;49.358;11.140;2023-07-20T14:51:27;2.35;;;1.60;;
11960;SDS011;6040;49.358;11.140;2023-07-20T14:53:56;1.88;;;1.55;;
11960;SDS011;6040;49.358;11.140;2023-07-20T14:56:25;2.90;;;1.40;;
11960;SDS011;6040;49.358;11.140;2023-07-20T14:58:51;2.40;;;1.52;;
11960;SDS011;6040;49.358;11.140;2023-07-20T15:01:18;1.75;;;1.65;;